createdAt,value
2018-09-27T00:00:37.312Z,100884.02
2018-09-27T00:06:41.837Z,100882.46
2018-09-27T00:12:46.401Z,100881.94
2018-09-27T00:18:50.988Z,100888.28
2018-09-27T00:24:55.526Z,100878.86
2018-09-27T00:31:00.151Z,100891.78
2018-09-27T00:37:04.713Z,100889.27
2018-09-27T00:43:09.292Z,100877.59
2018-09-27T00:49:13.847Z,100869.92
2018-09-27T00:55:18.701Z,100871.78
2018-09-27T01:01:23.272Z,100861.61
2018-09-27T01:07:27.890Z,100872.69
2018-09-27T01:13:39.225Z,100874.45
2018-09-27T01:19:43.800Z,100874.33
2018-09-27T01:25:48.321Z,100860.31
2018-09-27T01:31:52.946Z,100861.09
2018-09-27T01:37:57.585Z,100850.58
2018-09-27T01:44:02.172Z,100849.93
2018-09-27T01:50:07.571Z,100837.45
2018-09-27T01:56:12.149Z,100839.34
2018-09-27T02:02:16.714Z,100829.73
2018-09-27T02:08:21.322Z,100837.16
2018-09-27T02:14:26.434Z,100832.12
2018-09-27T02:20:31.025Z,100823.26
2018-09-27T02:26:35.593Z,100818.70
2018-09-27T02:32:40.760Z,100808.66
2018-09-27T02:38:45.332Z,100803.71
2018-09-27T02:44:50.253Z,100804.13
2018-09-27T02:50:54.822Z,100797.72
2018-09-27T02:56:59.693Z,100800.87
2018-09-27T03:03:04.247Z,100795.83
2018-09-27T03:09:11.414Z,100789.25
2018-09-27T03:15:16.032Z,100785.81
2018-09-27T03:21:20.566Z,100779.75
2018-09-27T03:27:25.136Z,100770.75
2018-09-27T03:33:30.044Z,100782.13
2018-09-27T03:39:34.637Z,100770.13
2018-09-27T03:45:39.188Z,100776.19
2018-09-27T03:51:43.738Z,100767.21
2018-09-27T03:57:48.319Z,100768.94
2018-09-27T04:03:52.926Z,100769.88
2018-09-27T04:09:57.483Z,100769.03
2018-09-27T04:16:02.082Z,100769.10
2018-09-27T04:22:06.688Z,100772.05
2018-09-27T04:28:11.936Z,100759.92
2018-09-27T04:34:16.470Z,100763.96
2018-09-27T04:40:21.035Z,100767.84
2018-09-27T04:46:25.953Z,100774.36
2018-09-27T04:52:30.865Z,100766.95
2018-09-27T04:58:35.753Z,100776.34
2018-09-27T05:04:40.298Z,100782.81
2018-09-27T05:10:45.207Z,100786.78
2018-09-27T05:16:49.832Z,100786.18
2018-09-27T05:22:54.748Z,100777.43
2018-09-27T05:28:59.349Z,100778.19
2018-09-27T05:35:04.303Z,100774.63
2018-09-27T05:41:08.847Z,100759.03
2018-09-27T05:47:13.416Z,100763.00
2018-09-27T05:53:18.624Z,100771.77
2018-09-27T05:59:23.200Z,100768.78
2018-09-27T06:05:27.801Z,100773.92
2018-09-27T06:11:32.513Z,100767.19
2018-09-27T06:17:37.033Z,100765.25
2018-09-27T06:23:41.595Z,100767.70
2018-09-27T06:29:46.536Z,100767.62
2018-09-27T06:35:51.133Z,100770.23
2018-09-27T06:41:55.774Z,100774.89
2018-09-27T06:48:00.312Z,100773.48
2018-09-27T06:54:05.243Z,100774.42
2018-09-27T07:00:09.950Z,100775.19
2018-09-27T07:06:14.532Z,100773.22
2018-09-27T07:12:19.862Z,100781.73
2018-09-27T07:18:24.591Z,100785.59
2018-09-27T07:24:29.495Z,100793.74
2018-09-27T07:30:34.362Z,100797.59
2018-09-27T07:36:38.975Z,100801.68
2018-09-27T07:42:43.627Z,100790.30
2018-09-27T07:48:48.219Z,100791.01
2018-09-27T07:54:53.311Z,100779.95
2018-09-27T08:00:57.874Z,100788.22
2018-09-27T08:07:02.880Z,100782.08
2018-09-27T08:13:07.474Z,100780.91
2018-09-27T08:19:12.074Z,100777.47
2018-09-27T08:25:16.642Z,100780.98
2018-09-27T08:31:21.269Z,100776.17
2018-09-27T08:37:25.870Z,100766.63
2018-09-27T08:43:31.353Z,100769.53
2018-09-27T08:49:36.299Z,100761.64
2018-09-27T08:55:40.968Z,100751.45
2018-09-27T09:01:45.575Z,100745.39
2018-09-27T09:07:50.201Z,100727.95
2018-09-27T09:13:54.791Z,100730.08
2018-09-27T09:19:59.375Z,100719.27
2018-09-27T09:26:03.961Z,100714.36
2018-09-27T09:32:08.532Z,100715.59
2018-09-27T09:38:13.180Z,100697.38
2018-09-27T09:44:18.071Z,100676.16
2018-09-27T09:50:22.680Z,100667.66
2018-09-27T09:56:27.235Z,100652.75
2018-09-27T10:02:32.581Z,100647.09
2018-09-27T10:08:37.080Z,100633.54
2018-09-27T10:14:41.665Z,100621.50
2018-09-27T10:20:46.287Z,100613.87
2018-09-27T10:26:50.843Z,100603.33
2018-09-27T10:32:55.433Z,100591.23
2018-09-27T10:39:00.297Z,100582.42
2018-09-27T10:45:05.270Z,100565.77
2018-09-27T10:51:09.869Z,100568.64
2018-09-27T10:57:14.534Z,100561.88
2018-09-27T11:03:19.059Z,100545.29
2018-09-27T11:09:23.635Z,100526.88
2018-09-27T11:15:28.217Z,100524.38
2018-09-27T11:21:32.782Z,100510.10
2018-09-27T11:27:37.446Z,100500.06
2018-09-27T11:33:48.827Z,100487.66
2018-09-27T11:39:53.800Z,100484.52
2018-09-27T11:45:58.470Z,100464.34
2018-09-27T11:52:03.079Z,100448.81
2018-09-27T11:58:07.767Z,100437.51
2018-09-27T12:04:12.349Z,100430.13
2018-09-27T12:10:17.314Z,100418.66
2018-09-27T12:16:21.883Z,100403.44
2018-09-27T12:22:26.844Z,100396.37
2018-09-27T12:28:31.439Z,100386.11
2018-09-27T12:34:36.033Z,100371.95
2018-09-27T12:40:40.756Z,100357.88
2018-09-27T12:46:45.565Z,100351.46
2018-09-27T12:52:50.217Z,100327.52
2018-09-27T12:58:54.813Z,100323.56
2018-09-27T13:04:59.738Z,100310.91
2018-09-27T13:11:04.297Z,100297.45
2018-09-27T13:17:08.975Z,100283.41
2018-09-27T13:23:13.513Z,100269.33
2018-09-27T13:29:18.493Z,100258.48
2018-09-27T13:35:23.142Z,100250.94
2018-09-27T13:41:27.768Z,100237.57
2018-09-27T13:47:32.773Z,100234.25
2018-09-27T13:53:37.340Z,100230.50
2018-09-27T13:59:41.891Z,100220.70
2018-09-27T14:05:46.441Z,100213.81
2018-09-27T14:11:51.392Z,100205.22
2018-09-27T14:17:55.937Z,100199.47
2018-09-27T14:24:00.481Z,100180.34
2018-09-27T14:30:05.186Z,100167.84
2018-09-27T14:36:10.075Z,100152.59
2018-09-27T14:42:14.672Z,100152.30
2018-09-27T14:48:19.241Z,100144.27
2018-09-27T14:54:23.853Z,100138.70
2018-09-27T15:00:28.433Z,100128.87
2018-09-27T15:06:33.071Z,100122.80
2018-09-27T15:12:38.106Z,100110.17
2018-09-27T15:18:42.966Z,100103.31
2018-09-27T15:24:48.123Z,100091.78
2018-09-27T15:30:52.703Z,100085.39
2018-09-27T15:36:57.349Z,100084.48
2018-09-27T15:43:02.287Z,100080.88
2018-09-27T15:49:07.013Z,100074.08
2018-09-27T15:55:12.368Z,100064.47
2018-09-27T16:01:17.164Z,100060.05
2018-09-27T16:07:21.785Z,100053.02
2018-09-27T16:13:26.386Z,100048.31
2018-09-27T16:19:30.975Z,100041.99
2018-09-27T16:25:35.532Z,100035.48
2018-09-27T16:31:40.180Z,100031.48
2018-09-27T16:37:44.793Z,100030.50
2018-09-27T16:43:49.699Z,100028.75
2018-09-27T16:49:54.286Z,100015.20
2018-09-27T16:55:58.909Z,100016.02
2018-09-27T17:02:03.508Z,100008.50
2018-09-27T17:08:08.189Z,100007.34
2018-09-27T17:14:12.866Z,100006.69
2018-09-27T17:20:17.560Z,100005.74
2018-09-27T17:26:22.456Z,100001.63
2018-09-27T17:32:27.101Z,99997.17
2018-09-27T17:38:31.738Z,100002.25
2018-09-27T17:44:36.353Z,99990.69
2018-09-27T17:50:40.960Z,99987.27
2018-09-27T17:56:46.103Z,99986.80
2018-09-27T18:02:50.718Z,99989.40
2018-09-27T18:08:55.386Z,99987.09
2018-09-27T18:14:59.985Z,99983.83
2018-09-27T18:21:04.978Z,99978.95
2018-09-27T18:27:09.579Z,99980.73
2018-09-27T18:33:14.156Z,99976.69
2018-09-27T18:39:18.809Z,99980.31
2018-09-27T18:45:23.576Z,99977.85
2018-09-27T18:51:28.313Z,99974.62
2018-09-27T18:57:33.382Z,99971.72
2018-09-27T19:03:38.231Z,99971.92
2018-09-27T19:09:43.417Z,99976.52
2018-09-27T19:15:48.057Z,99968.76
2018-09-27T19:21:52.615Z,99981.48
2018-09-27T19:27:57.230Z,99976.48
2018-09-27T19:34:01.806Z,99975.64
2018-09-27T19:40:06.409Z,99973.24
2018-09-27T19:46:11.011Z,99979.01
2018-09-27T19:52:15.705Z,99983.41
2018-09-27T19:58:20.689Z,99985.59
2018-09-27T20:04:25.362Z,99973.54
2018-09-27T20:10:29.965Z,99971.44
2018-09-27T20:16:34.656Z,99961.95
2018-09-27T20:22:39.238Z,99957.77
2018-09-27T20:28:43.785Z,99949.78
2018-09-27T20:34:48.465Z,99945.44
2018-09-27T20:40:53.314Z,99948.72
2018-09-27T20:46:58.281Z,99952.48
2018-09-27T20:53:02.917Z,99945.16
2018-09-27T20:59:07.505Z,99940.50
2018-09-27T21:05:12.120Z,99939.80
2018-09-27T21:11:16.749Z,99936.09
2018-09-27T21:17:21.401Z,99938.39
2018-09-27T21:23:25.956Z,99936.39
2018-09-27T21:29:30.592Z,99926.02
2018-09-27T21:35:35.219Z,99915.45
2018-09-27T21:41:39.823Z,99916.08
2018-09-27T21:47:44.450Z,99918.97
2018-09-27T21:53:49.080Z,99912.34
2018-09-27T21:59:54.080Z,99915.86
2018-09-27T22:05:58.703Z,99900.31
2018-09-27T22:12:03.671Z,99898.42
2018-09-27T22:18:08.298Z,99882.34
2018-09-27T22:24:12.882Z,99875.47
2018-09-27T22:30:17.476Z,99883.42
2018-09-27T22:36:22.376Z,99882.24
2018-09-27T22:42:27.328Z,99889.36
2018-09-27T22:48:31.921Z,99884.94
2018-09-27T22:54:36.595Z,99892.46
2018-09-27T23:00:41.162Z,99898.05
2018-09-27T23:06:46.130Z,99897.30
2018-09-27T23:12:50.791Z,99896.63
2018-09-27T23:18:55.701Z,99901.52
2018-09-27T23:25:00.295Z,99904.47
2018-09-27T23:31:04.861Z,99901.13
2018-09-27T23:37:09.430Z,99898.01
2018-09-27T23:43:14.034Z,99888.81
2018-09-27T23:49:19.011Z,99880.47
2018-09-27T23:55:23.640Z,99882.07
